createdAt,value
2017-07-24T06:04:48.788Z,2.94
2017-07-24T06:05:34.165Z,3.52
2017-07-24T06:06:34.161Z,4.08
2017-07-24T06:07:34.154Z,4.17
2017-07-24T06:08:34.145Z,4.36
2017-07-24T06:09:34.126Z,4.17
2017-07-24T06:10:34.125Z,4.08
2017-07-24T06:11:34.108Z,3.99
2017-07-24T06:12:34.102Z,3.61
2017-07-24T06:13:34.094Z,2.84
2017-07-24T06:14:34.076Z,2.56
2017-07-24T06:15:33.764Z,2.47
2017-07-24T06:16:34.072Z,2.47
2017-07-24T06:17:34.057Z,2.84
2017-07-24T06:18:34.041Z,2.75
2017-07-24T06:19:34.036Z,2.28
2017-07-24T06:20:34.014Z,1.8
2017-07-24T06:21:34.011Z,2.09
2017-07-24T06:22:34.004Z,1.71
2017-07-24T06:23:33.993Z,1.71
2017-07-24T06:24:33.974Z,1.71
2017-07-24T06:25:33.972Z,1.8
2017-07-24T06:26:33.951Z,2.09
2017-07-24T06:27:33.951Z,1.8
2017-07-24T06:28:33.944Z,1.51
2017-07-24T06:29:33.922Z,1.51
2017-07-24T06:30:33.923Z,1.8
2017-07-24T06:31:33.899Z,1.9
2017-07-24T06:32:33.888Z,1.7
2017-07-24T06:33:33.879Z,1.51
2017-07-24T06:34:33.874Z,1.51
2017-07-24T06:35:33.858Z,1.23
2017-07-24T06:36:33.847Z,1.14
2017-07-24T06:37:33.841Z,0.95
2017-07-24T06:38:33.829Z,0.66
2017-07-24T06:39:33.811Z,0.19
2017-07-24T06:40:33.506Z,0.28
2017-07-24T06:41:33.800Z,0.09
2017-07-24T06:42:33.789Z,0
2017-07-24T06:43:33.777Z,0
2017-07-24T06:44:33.768Z,0
2017-07-24T06:45:33.756Z,0
2017-07-24T06:46:33.753Z,0
2017-07-24T06:47:33.427Z,0
2017-07-24T06:48:33.727Z,0
2017-07-24T06:49:33.706Z,0
2017-07-24T06:50:33.707Z,0
2017-07-24T06:51:33.694Z,0
2017-07-24T06:52:33.683Z,0
2017-07-24T06:53:33.673Z,0
2017-07-24T06:54:33.659Z,0
2017-07-24T06:55:33.650Z,0
2017-07-24T06:56:33.638Z,0
2017-07-24T06:57:33.618Z,0
2017-07-24T06:58:33.618Z,0
2017-07-24T06:59:33.604Z,0
2017-07-24T07:00:33.588Z,0
2017-07-24T07:01:33.584Z,0
2017-07-24T07:02:33.576Z,0
2017-07-24T07:03:33.556Z,0
2017-07-24T07:04:33.549Z,0
2017-07-24T07:05:33.230Z,0
2017-07-24T07:06:33.525Z,0
2017-07-24T07:07:33.517Z,0
2017-07-24T07:08:33.504Z,0
2017-07-24T07:09:33.498Z,0
2017-07-24T07:10:33.484Z,0
2017-07-24T07:11:33.476Z,0
2017-07-24T07:12:33.157Z,0
2017-07-24T07:13:33.147Z,0
2017-07-24T07:14:33.436Z,0
2017-07-24T07:15:33.420Z,0
2017-07-24T07:16:33.410Z,0
2017-07-24T07:17:33.404Z,0
2017-07-24T07:18:33.397Z,0
2017-07-24T07:19:33.077Z,0
2017-07-24T07:20:33.368Z,0
2017-07-24T07:21:33.360Z,0
2017-07-24T07:22:33.342Z,0
2017-07-24T07:23:33.027Z,0
2017-07-24T07:24:33.323Z,0
2017-07-24T07:25:33.303Z,0
2017-07-24T07:26:33.301Z,0
2017-07-24T07:27:33.292Z,0
2017-07-24T07:28:33.283Z,0
2017-07-24T07:29:33.263Z,0
2017-07-24T07:30:33.256Z,0
2017-07-24T07:31:33.249Z,0
2017-07-24T07:32:33.233Z,0
2017-07-24T07:33:33.219Z,0
2017-07-24T07:34:33.208Z,0
2017-07-24T07:35:33.202Z,0
2017-07-24T07:36:33.183Z,0
2017-07-24T07:37:32.868Z,0
2017-07-24T07:38:33.164Z,0
2017-07-24T07:39:33.149Z,0
2017-07-24T07:40:33.146Z,0
2017-07-24T07:41:33.132Z,0
2017-07-24T07:42:33.125Z,0
2017-07-24T07:43:33.104Z,0
2017-07-24T07:44:33.101Z,0
2017-07-24T07:45:33.084Z,0
2017-07-24T07:46:33.082Z,0
2017-07-24T07:47:33.061Z,0
2017-07-24T07:48:33.060Z,0
2017-07-24T07:49:33.048Z,0
2017-07-24T07:50:33.032Z,0
2017-07-24T07:51:33.020Z,0
2017-07-24T07:52:33.013Z,0
2017-07-24T07:53:32.997Z,0
2017-07-24T07:54:32.994Z,0
2017-07-24T07:55:32.982Z,0
2017-07-24T07:56:32.974Z,0
2017-07-24T07:57:32.957Z,0
2017-07-24T07:58:32.953Z,0
2017-07-24T07:59:32.636Z,0
2017-07-24T08:00:32.932Z,0
2017-07-24T08:01:32.913Z,0
2017-07-24T08:02:32.905Z,0
2017-07-24T08:03:32.884Z,0
2017-07-24T08:04:32.883Z,0
2017-07-24T08:05:32.862Z,0
2017-07-24T08:06:32.547Z,0
2017-07-24T08:07:32.845Z,0
2017-07-24T08:08:32.824Z,0
2017-07-24T08:09:32.811Z,0
2017-07-24T08:10:32.795Z,0
2017-07-24T08:11:32.791Z,0
2017-07-24T08:12:32.780Z,0
2017-07-24T08:13:32.458Z,0
2017-07-24T08:14:32.751Z,0
2017-07-24T08:15:32.434Z,0
2017-07-24T08:16:32.725Z,0
2017-07-24T08:17:32.404Z,0
2017-07-24T08:18:32.709Z,0
2017-07-24T08:19:32.381Z,0
2017-07-24T08:20:32.667Z,0
2017-07-24T08:21:32.656Z,0
2017-07-24T08:22:32.334Z,0
2017-07-24T08:23:32.316Z,0
2017-07-24T08:24:32.614Z,0
2017-07-24T08:25:32.287Z,0
2017-07-24T08:26:32.574Z,0
2017-07-24T08:27:32.562Z,0
2017-07-24T08:28:32.555Z,0
2017-07-24T08:29:32.542Z,0
2017-07-24T08:30:32.525Z,0
2017-07-24T08:31:32.506Z,0
2017-07-24T08:32:32.491Z,0
2017-07-24T08:33:32.484Z,0
2017-07-24T08:34:32.467Z,0
2017-07-24T08:35:32.456Z,0
2017-07-24T08:36:32.137Z,0
2017-07-24T08:37:32.431Z,0
2017-07-24T08:38:32.412Z,0
2017-07-24T08:39:32.393Z,0
2017-07-24T08:40:32.382Z,0
2017-07-24T08:41:32.365Z,0
2017-07-24T08:42:32.353Z,0
2017-07-24T08:43:32.037Z,0
2017-07-24T08:44:32.324Z,0
2017-07-24T08:45:32.306Z,0
2017-07-24T08:46:32.299Z,0
2017-07-24T08:47:32.280Z,0
2017-07-24T08:48:32.267Z,0
2017-07-24T08:49:32.254Z,0
2017-07-24T08:50:32.240Z,0
2017-07-24T08:51:32.224Z,0
2017-07-24T08:52:32.215Z,0
2017-07-24T08:53:31.892Z,0
2017-07-24T08:54:31.884Z,0
2017-07-24T08:55:32.166Z,0
2017-07-24T08:56:32.160Z,0
2017-07-24T08:57:32.141Z,0
2017-07-24T08:58:31.820Z,0
2017-07-24T08:59:32.116Z,0
2017-07-24T09:00:31.790Z,0
2017-07-24T09:01:32.087Z,0
2017-07-24T09:02:32.063Z,0
2017-07-24T09:03:31.749Z,0
2017-07-24T09:04:31.739Z,0
2017-07-24T09:05:32.031Z,0
2017-07-24T09:06:31.705Z,0
2017-07-24T09:07:31.685Z,0
2017-07-24T09:08:31.677Z,0
2017-07-24T09:09:31.662Z,0
2017-07-24T09:10:31.944Z,0
2017-07-24T09:11:31.926Z,0
2017-07-24T09:12:31.608Z,0
2017-07-24T09:13:31.909Z,0
2017-07-24T09:14:31.580Z,0
2017-07-24T09:15:31.568Z,0
2017-07-24T09:16:31.860Z,0
2017-07-24T09:17:31.537Z,0
2017-07-24T09:18:31.523Z,0
2017-07-24T09:19:31.811Z,0
2017-07-24T09:20:31.492Z,0
2017-07-24T09:21:31.478Z,0
2017-07-24T09:22:31.464Z,0
2017-07-24T09:23:31.444Z,0
2017-07-24T09:24:31.427Z,0
2017-07-24T09:25:31.727Z,0
2017-07-24T09:26:31.706Z,0
2017-07-24T09:27:31.697Z,0
2017-07-24T09:28:31.671Z,0
2017-07-24T09:29:31.659Z,0
2017-07-24T09:30:31.652Z,0
2017-07-24T09:31:31.636Z,0
2017-07-24T09:32:31.624Z,0
2017-07-24T09:33:31.597Z,0
2017-07-24T09:34:31.285Z,0
2017-07-24T09:35:31.579Z,0
2017-07-24T09:36:31.563Z,0
2017-07-24T09:37:31.541Z,0
2017-07-24T09:38:31.528Z,0
2017-07-24T09:39:31.516Z,0
2017-07-24T09:40:31.495Z,0
2017-07-24T09:41:31.511Z,0
2017-07-24T09:42:31.466Z,0
2017-07-24T09:43:31.458Z,0
2017-07-24T09:44:31.444Z,0
2017-07-24T09:45:31.433Z,0
2017-07-24T09:46:31.406Z,0
2017-07-24T09:47:31.391Z,0
2017-07-24T09:48:31.383Z,0
2017-07-24T09:49:31.363Z,0
2017-07-24T09:50:31.349Z,0
2017-07-24T09:51:31.032Z,0
2017-07-24T09:52:31.328Z,0
2017-07-24T09:53:31.310Z,0
2017-07-24T09:54:31.298Z,0
2017-07-24T09:55:30.972Z,0
2017-07-24T09:56:31.262Z,0
2017-07-24T09:57:31.248Z,0
2017-07-24T09:58:31.239Z,0
2017-07-24T09:59:31.216Z,0
2017-07-24T10:00:30.902Z,0
2017-07-24T10:01:31.191Z,0
2017-07-24T10:02:30.878Z,0
2017-07-24T10:03:30.861Z,0
2017-07-24T10:04:31.146Z,0
2017-07-24T10:05:31.142Z,0
2017-07-24T10:06:31.121Z,0
2017-07-24T10:07:30.802Z,0
2017-07-24T10:08:31.096Z,0
2017-07-24T10:09:30.772Z,0
2017-07-24T10:10:30.761Z,0
2017-07-24T10:11:31.055Z,0
2017-07-24T10:12:31.037Z,0
2017-07-24T10:13:30.712Z,0
2017-07-24T10:14:31.010Z,0
2017-07-24T10:15:30.987Z,0
2017-07-24T10:16:30.668Z,0
2017-07-24T10:17:30.654Z,0
2017-07-24T10:18:30.950Z,0
2017-07-24T10:19:30.937Z,0
2017-07-24T10:20:30.614Z,0
2017-07-24T10:21:30.597Z,0
2017-07-24T10:22:30.586Z,0
2017-07-24T10:23:30.573Z,0
2017-07-24T10:24:30.561Z,0
2017-07-24T10:25:30.545Z,0
2017-07-24T10:26:30.532Z,0
2017-07-24T10:27:30.825Z,0
2017-07-24T10:28:30.809Z,0
2017-07-24T10:29:30.489Z,0
2017-07-24T10:30:30.474Z,0
2017-07-24T10:31:30.456Z,0
2017-07-24T10:32:30.751Z,0
2017-07-24T10:33:30.733Z,0
2017-07-24T10:34:30.715Z,0
2017-07-24T10:35:30.706Z,0
2017-07-24T10:36:30.689Z,0
2017-07-24T10:37:30.678Z,0
2017-07-24T10:38:30.659Z,0
2017-07-24T10:39:30.650Z,0
2017-07-24T10:40:30.640Z,0
2017-07-24T10:41:30.622Z,0
2017-07-24T10:42:30.612Z,0
2017-07-24T10:43:30.594Z,0
2017-07-24T10:44:30.587Z,0
2017-07-24T10:45:30.563Z,0
2017-07-24T10:46:30.552Z,0
2017-07-24T10:47:30.544Z,0
2017-07-24T10:48:30.532Z,0
2017-07-24T10:49:30.517Z,0
2017-07-24T10:50:30.502Z,0
2017-07-24T10:51:30.478Z,0
2017-07-24T10:52:30.472Z,0
2017-07-24T10:53:30.458Z,0
2017-07-24T10:54:30.441Z,0
2017-07-24T10:55:30.421Z,0
2017-07-24T10:56:30.421Z,0
2017-07-24T10:57:30.099Z,0
2017-07-24T10:58:30.078Z,0
2017-07-24T10:59:30.067Z,0
2017-07-24T11:00:30.361Z,0
2017-07-24T11:01:30.340Z,0
2017-07-24T11:02:30.337Z,0
2017-07-24T11:03:30.337Z,0
2017-07-24T11:04:30.309Z,0
2017-07-24T11:05:30.296Z,0
2017-07-24T11:06:30.272Z,0
2017-07-24T11:07:30.272Z,0
2017-07-24T11:08:30.245Z,0
2017-07-24T11:09:30.244Z,0
2017-07-24T11:10:30.227Z,0
2017-07-24T11:11:30.213Z,0
2017-07-24T11:12:30.193Z,0
2017-07-24T11:13:30.188Z,0
2017-07-24T11:14:30.170Z,0
2017-07-24T11:15:30.163Z,0
2017-07-24T11:16:30.143Z,0
2017-07-24T11:17:30.136Z,0
2017-07-24T11:18:30.120Z,0
2017-07-24T11:19:30.104Z,0
2017-07-24T11:20:30.083Z,0
2017-07-24T11:21:30.076Z,0
2017-07-24T11:22:30.071Z,0
2017-07-24T11:23:30.045Z,0
2017-07-24T11:24:30.042Z,0
2017-07-24T11:25:30.022Z,0
2017-07-24T11:26:30.007Z,0
2017-07-24T11:27:30.001Z,0
2017-07-24T11:28:29.984Z,0
2017-07-24T11:29:29.969Z,0
2017-07-24T11:30:29.950Z,0
2017-07-24T11:31:29.936Z,0
2017-07-24T11:32:29.928Z,0
2017-07-24T11:33:29.911Z,0
2017-07-24T11:34:29.902Z,0
2017-07-24T11:35:29.576Z,0
2017-07-24T11:36:29.570Z,0
2017-07-24T11:37:29.549Z,0
2017-07-24T11:38:29.840Z,0
2017-07-24T11:39:29.524Z,0
2017-07-24T11:40:29.507Z,0
2017-07-24T11:41:29.801Z,0
2017-07-24T11:42:29.794Z,0
2017-07-24T11:43:29.769Z,0
2017-07-24T11:44:29.758Z,0
2017-07-24T11:45:29.755Z,0
2017-07-24T11:46:29.731Z,0
2017-07-24T11:47:29.717Z,0
2017-07-24T11:48:29.708Z,0
2017-07-24T11:49:29.699Z,0
2017-07-24T11:50:29.682Z,0
2017-07-24T11:51:29.671Z,0
2017-07-24T11:52:29.659Z,0
2017-07-24T11:53:29.637Z,0
2017-07-24T11:54:29.632Z,0
2017-07-24T11:55:29.614Z,0
2017-07-24T11:56:29.600Z,0
2017-07-24T11:57:29.585Z,0
2017-07-24T11:58:29.574Z,0
2017-07-24T11:59:29.557Z,0
2017-07-24T12:00:29.545Z,0
2017-07-24T12:01:29.533Z,0
2017-07-24T12:02:29.515Z,0
2017-07-24T12:03:29.502Z,0
2017-07-24T12:04:29.500Z,0
2017-07-24T12:05:29.478Z,0
2017-07-24T12:06:29.467Z,0
2017-07-24T12:07:29.457Z,0
2017-07-24T12:08:29.449Z,0
2017-07-24T12:09:29.421Z,0
2017-07-24T12:10:29.411Z,0
2017-07-24T12:11:29.405Z,0
2017-07-24T12:12:29.387Z,0
2017-07-24T12:13:29.370Z,0
2017-07-24T12:14:29.356Z,0
2017-07-24T12:15:29.347Z,0
2017-07-24T12:16:29.337Z,0
2017-07-24T12:17:29.315Z,0
2017-07-24T12:18:29.304Z,0
2017-07-24T12:19:29.287Z,0
2017-07-24T12:20:29.275Z,0
2017-07-24T12:21:28.966Z,0
2017-07-24T12:22:29.262Z,0
2017-07-24T12:23:29.244Z,0
2017-07-24T12:24:29.232Z,0
2017-07-24T12:25:28.916Z,0
2017-07-24T12:26:29.199Z,0
2017-07-24T12:27:28.884Z,0
2017-07-24T12:28:29.170Z,0
2017-07-24T12:29:29.159Z,0
2017-07-24T12:30:29.144Z,0
2017-07-24T12:31:29.139Z,0
2017-07-24T12:32:29.127Z,0
2017-07-24T12:33:29.107Z,0
2017-07-24T12:34:29.097Z,0
2017-07-24T12:35:29.082Z,0
2017-07-24T12:36:29.072Z,0
2017-07-24T12:37:29.054Z,0
2017-07-24T12:38:28.736Z,0
2017-07-24T12:39:29.033Z,0
2017-07-24T12:40:29.015Z,0
2017-07-24T12:41:28.996Z,0
2017-07-24T12:42:28.986Z,0
2017-07-24T12:43:28.965Z,0
2017-07-24T12:44:28.955Z,0
2017-07-24T12:45:28.939Z,0
2017-07-24T12:46:28.936Z,0
2017-07-24T12:47:28.923Z,0
2017-07-24T12:48:28.904Z,0
2017-07-24T12:49:28.881Z,0
2017-07-24T12:50:28.876Z,0
2017-07-24T12:51:28.861Z,0
2017-07-24T12:52:28.542Z,0
2017-07-24T12:53:28.832Z,0
2017-07-24T12:54:28.517Z,0
2017-07-24T12:55:28.804Z,0
2017-07-24T12:56:28.793Z,0
2017-07-24T12:57:28.780Z,0
2017-07-24T12:58:28.762Z,0
2017-07-24T12:59:28.745Z,0
2017-07-24T13:00:28.741Z,0
2017-07-24T13:01:28.721Z,0
2017-07-24T13:02:28.702Z,0
2017-07-24T13:03:28.690Z,0
2017-07-24T13:04:28.674Z,0
2017-07-24T13:05:28.659Z,0
2017-07-24T13:06:28.654Z,0
2017-07-24T13:07:28.635Z,0
2017-07-24T13:08:28.629Z,0
2017-07-24T13:09:28.618Z,0
2017-07-24T13:10:28.591Z,0
2017-07-24T13:11:28.574Z,0
2017-07-24T13:12:28.566Z,0
2017-07-24T13:13:28.541Z,0
2017-07-24T13:14:28.526Z,0
2017-07-24T13:15:28.520Z,0
2017-07-24T13:16:28.506Z,0
2017-07-24T13:17:28.496Z,0
2017-07-24T13:18:28.479Z,0
2017-07-24T13:19:28.456Z,0
2017-07-24T13:20:28.448Z,0
2017-07-24T13:21:28.125Z,0
2017-07-24T13:22:28.409Z,0
2017-07-24T13:23:28.404Z,0
2017-07-24T13:24:28.384Z,0
2017-07-24T13:25:28.368Z,0
2017-07-24T13:26:28.365Z,0
2017-07-24T13:27:28.339Z,0
2017-07-24T13:28:28.331Z,0
2017-07-24T13:29:28.317Z,0
2017-07-24T13:30:28.295Z,0
2017-07-24T13:31:28.282Z,0
2017-07-24T13:32:28.276Z,0
2017-07-24T13:33:28.260Z,0
2017-07-24T13:34:28.250Z,0
2017-07-24T13:35:27.933Z,0
2017-07-24T13:36:28.206Z,0
2017-07-24T13:37:28.194Z,0
2017-07-24T13:38:28.181Z,0
2017-07-24T13:39:28.165Z,0
2017-07-24T13:40:28.151Z,0
2017-07-24T13:41:28.135Z,0
2017-07-24T13:42:28.118Z,0
2017-07-24T13:43:28.107Z,0
2017-07-24T13:44:28.099Z,0
2017-07-24T13:45:28.078Z,0
2017-07-24T13:46:27.757Z,0
2017-07-24T13:47:28.055Z,0
2017-07-24T13:48:28.044Z,0
2017-07-24T13:49:28.024Z,0
2017-07-24T13:50:28.003Z,0
2017-07-24T13:51:27.991Z,0
2017-07-24T13:52:27.973Z,0
2017-07-24T13:53:27.961Z,0
2017-07-24T13:54:27.951Z,0
2017-07-24T13:55:27.635Z,0
2017-07-24T13:56:27.929Z,0
2017-07-24T13:57:27.909Z,0
2017-07-24T13:58:27.886Z,0
2017-07-24T13:59:27.872Z,0
2017-07-24T14:00:27.877Z,0
2017-07-24T14:01:27.842Z,0
2017-07-24T14:02:27.825Z,0
2017-07-24T14:03:27.515Z,0
2017-07-24T14:04:27.801Z,0
2017-07-24T14:05:27.796Z,0
2017-07-24T14:06:27.776Z,0
2017-07-24T14:07:27.758Z,0
2017-07-24T14:08:27.739Z,0
2017-07-24T14:09:27.427Z,0
2017-07-24T14:10:27.715Z,0
2017-07-24T14:11:27.698Z,0
2017-07-24T14:12:27.682Z,0
2017-07-24T14:13:27.676Z,0
2017-07-24T14:14:27.353Z,0
2017-07-24T14:15:27.647Z,0
2017-07-24T14:16:27.626Z,0
2017-07-24T14:17:27.609Z,0
2017-07-24T14:18:27.594Z,0
2017-07-24T14:19:27.590Z,0
2017-07-24T14:20:27.561Z,0
2017-07-24T14:21:27.557Z,0
2017-07-24T14:22:27.536Z,0
2017-07-24T14:23:27.522Z,0
2017-07-24T14:24:27.503Z,0
2017-07-24T14:25:27.498Z,0
2017-07-24T14:26:27.484Z,0
2017-07-24T14:27:27.465Z,0
2017-07-24T14:28:27.455Z,0
2017-07-24T14:29:27.441Z,0
2017-07-24T14:30:27.430Z,0
2017-07-24T14:31:27.407Z,0
2017-07-24T14:32:27.395Z,0
2017-07-24T14:33:27.373Z,0
2017-07-24T14:34:27.357Z,0
2017-07-24T14:35:27.344Z,0
2017-07-24T14:36:27.329Z,0
2017-07-24T14:37:27.325Z,0
2017-07-24T14:38:27.302Z,0
2017-07-24T14:39:27.289Z,0
2017-07-24T14:40:27.272Z,0
2017-07-24T14:41:27.262Z,0
2017-07-24T14:42:27.244Z,0
2017-07-24T14:43:27.225Z,0
2017-07-24T14:44:27.208Z,0
2017-07-24T14:45:27.200Z,0
2017-07-24T14:46:27.179Z,0
2017-07-24T14:47:27.177Z,0
2017-07-24T14:48:27.151Z,0
2017-07-24T14:49:27.131Z,0
2017-07-24T14:50:27.124Z,0
2017-07-24T14:51:27.099Z,0
2017-07-24T14:52:26.785Z,0
2017-07-24T14:53:27.092Z,0
2017-07-24T14:54:27.064Z,0
2017-07-24T14:55:27.043Z,0
2017-07-24T14:56:27.022Z,0
2017-07-24T14:57:27.019Z,0
2017-07-24T14:58:26.993Z,0
2017-07-24T14:59:26.986Z,0
2017-07-24T15:00:26.965Z,0
2017-07-24T15:01:26.943Z,0
2017-07-24T15:02:26.928Z,0
2017-07-24T15:03:26.919Z,0
2017-07-24T15:04:26.893Z,0
2017-07-24T15:05:26.882Z,0
2017-07-24T15:06:26.873Z,0
2017-07-24T15:07:26.558Z,0
2017-07-24T15:08:26.537Z,0
2017-07-24T15:09:26.817Z,0
2017-07-24T15:10:26.811Z,0
2017-07-24T15:11:26.788Z,0
2017-07-24T15:12:26.783Z,0
2017-07-24T15:13:26.454Z,0
2017-07-24T15:14:26.445Z,0
2017-07-24T15:15:26.424Z,0
2017-07-24T15:16:26.705Z,0
2017-07-24T15:17:26.695Z,0
2017-07-24T15:18:26.674Z,0
2017-07-24T15:19:26.661Z,0
2017-07-24T15:20:26.659Z,0
2017-07-24T15:21:26.639Z,0
2017-07-24T15:22:26.620Z,0
2017-07-24T15:23:26.605Z,0
2017-07-24T15:24:26.581Z,0
2017-07-24T15:25:26.569Z,0
2017-07-24T15:26:26.250Z,0
2017-07-24T15:27:26.532Z,0
2017-07-24T15:28:26.526Z,0
2017-07-24T15:29:26.516Z,0
2017-07-24T15:30:26.496Z,0
2017-07-24T15:31:26.481Z,0
2017-07-24T15:32:26.469Z,0
2017-07-24T15:33:26.437Z,0
2017-07-24T15:34:26.426Z,0
2017-07-24T15:35:26.410Z,0
2017-07-24T15:36:26.393Z,0
2017-07-24T15:37:26.385Z,0
2017-07-24T15:38:26.359Z,0
2017-07-24T15:39:26.348Z,0
2017-07-24T15:40:26.326Z,0
2017-07-24T15:41:26.313Z,0
2017-07-24T15:42:26.301Z,0
2017-07-24T15:43:26.283Z,0
2017-07-24T15:44:26.282Z,0
2017-07-24T15:45:26.263Z,0
2017-07-24T15:46:26.231Z,0
2017-07-24T15:47:26.226Z,0
2017-07-24T15:48:26.199Z,0
2017-07-24T15:49:26.196Z,0
2017-07-24T15:50:26.169Z,0
2017-07-24T15:51:26.153Z,0
2017-07-24T15:52:26.145Z,0
2017-07-24T15:53:26.119Z,0
2017-07-24T15:54:26.106Z,0
2017-07-24T15:55:26.094Z,0
2017-07-24T15:56:26.075Z,0
2017-07-24T15:57:26.069Z,0
2017-07-24T15:58:26.046Z,0
2017-07-24T15:59:26.034Z,0
2017-07-24T16:00:26.019Z,0
2017-07-24T16:01:25.994Z,0
2017-07-24T16:02:25.685Z,0
2017-07-24T16:03:25.966Z,0
2017-07-24T16:04:25.948Z,0
2017-07-24T16:05:25.942Z,0
2017-07-24T16:06:25.918Z,0
2017-07-24T16:07:25.908Z,0
2017-07-24T16:08:26.098Z,0
2017-07-24T16:09:39.507Z,0
2017-07-24T16:10:25.858Z,0
2017-07-24T16:11:25.839Z,0
2017-07-24T16:12:25.524Z,0
2017-07-24T16:13:25.816Z,0
2017-07-24T16:14:25.791Z,0
2017-07-24T16:15:25.780Z,0
2017-07-24T16:16:25.777Z,0
2017-07-24T16:17:25.780Z,0
2017-07-24T16:18:25.736Z,0
2017-07-24T16:19:25.732Z,0
2017-07-24T16:20:25.698Z,0
2017-07-24T16:21:25.386Z,0
2017-07-24T16:22:25.679Z,0
2017-07-24T16:23:25.647Z,0
2017-07-24T16:24:25.643Z,0
2017-07-24T16:25:25.622Z,0
2017-07-24T16:26:25.601Z,0
2017-07-24T16:27:25.595Z,0
2017-07-24T16:28:25.568Z,0
2017-07-24T16:29:25.255Z,0
2017-07-24T16:30:25.545Z,0
2017-07-24T16:31:25.524Z,0
2017-07-24T16:32:25.528Z,0
2017-07-24T16:33:25.489Z,0
2017-07-24T16:34:25.478Z,0
2017-07-24T16:35:25.456Z,0
2017-07-24T16:36:25.451Z,0
2017-07-24T16:37:25.635Z,0
2017-07-24T16:38:25.412Z,0
2017-07-24T16:39:25.390Z,0
2017-07-24T16:40:25.384Z,0
2017-07-24T16:41:25.364Z,0
2017-07-24T16:42:25.560Z,0
2017-07-24T16:43:25.333Z,0
2017-07-24T16:44:25.313Z,0
2017-07-24T16:45:25.314Z,0
2017-07-24T16:46:25.286Z,0
2017-07-24T16:47:25.265Z,0
2017-07-24T16:48:25.264Z,0
2017-07-24T16:49:25.237Z,0
2017-07-24T16:50:25.219Z,0
2017-07-24T16:51:25.205Z,0
2017-07-24T16:52:25.188Z,0
2017-07-24T16:53:25.198Z,0
2017-07-24T16:54:25.165Z,0
2017-07-24T16:55:25.142Z,0
2017-07-24T16:56:25.133Z,0
2017-07-24T16:57:25.109Z,0
2017-07-24T16:58:25.092Z,0
2017-07-24T16:59:25.088Z,0
2017-07-24T17:00:25.073Z,0
2017-07-24T17:01:25.053Z,0
2017-07-24T17:02:24.727Z,0
2017-07-24T17:03:25.025Z,0
2017-07-24T17:04:24.998Z,0
2017-07-24T17:05:24.984Z,0
2017-07-24T17:06:24.977Z,0
2017-07-24T17:07:24.955Z,0
2017-07-24T17:08:24.937Z,0
2017-07-24T17:09:24.926Z,0
2017-07-24T17:10:24.924Z,0
2017-07-24T17:11:24.893Z,0
2017-07-24T17:12:24.878Z,0
2017-07-24T17:13:24.865Z,0
2017-07-24T17:14:24.545Z,0
2017-07-24T17:15:24.826Z,0
2017-07-24T17:16:25.017Z,0
2017-07-24T17:17:24.687Z,0
2017-07-24T17:18:24.781Z,0
2017-07-24T17:19:39.371Z,0
2017-07-24T17:20:24.763Z,0
2017-07-24T17:21:24.732Z,0
2017-07-24T17:22:24.721Z,0
2017-07-24T17:23:24.699Z,0
2017-07-24T17:24:24.686Z,0
2017-07-24T17:25:24.672Z,0
2017-07-24T17:26:24.653Z,0
2017-07-24T17:27:24.641Z,0
2017-07-24T17:28:24.631Z,0
2017-07-24T17:29:24.606Z,0
2017-07-24T17:30:24.619Z,0
2017-07-24T17:31:24.582Z,0
2017-07-24T17:32:24.261Z,0
2017-07-24T17:33:24.554Z,0
2017-07-24T17:34:24.527Z,0
2017-07-24T17:35:24.209Z,0
2017-07-24T17:36:24.203Z,0
2017-07-24T17:37:24.488Z,0
2017-07-24T17:38:24.159Z,0
2017-07-24T17:39:24.466Z,0
2017-07-24T17:40:24.439Z,0
2017-07-24T17:41:24.420Z,0
2017-07-24T17:42:24.407Z,0
2017-07-24T17:43:24.390Z,0
2017-07-24T17:44:24.379Z,0
2017-07-24T17:45:38.967Z,0
2017-07-24T17:47:18.506Z,0
2017-07-24T17:47:28.312Z,0
2017-07-24T17:48:28.295Z,0
2017-07-24T17:49:28.287Z,0
2017-07-24T17:50:28.271Z,0
2017-07-24T17:51:28.255Z,0
2017-07-24T17:52:28.245Z,0
2017-07-24T17:53:28.313Z,0
2017-07-24T17:54:28.212Z,0
2017-07-24T17:55:28.195Z,0
2017-07-24T17:56:28.173Z,0
2017-07-24T17:57:28.154Z,0
2017-07-24T17:58:28.143Z,0
2017-07-24T17:59:28.124Z,0
2017-07-24T18:00:28.113Z,0
2017-07-24T18:01:28.097Z,0
2017-07-24T18:02:28.085Z,0
2017-07-24T18:03:28.066Z,0
2017-07-24T18:04:28.060Z,0
2017-07-24T18:05:27.740Z,0
2017-07-24T18:06:28.015Z,0
2017-07-24T18:07:28.004Z,0
2017-07-24T18:08:28.206Z,0
2017-07-24T18:09:27.671Z,0
2017-07-24T18:10:27.958Z,0
2017-07-24T18:11:27.942Z,0
2017-07-24T18:12:28.135Z,0
2017-07-24T18:13:27.910Z,0
2017-07-24T18:14:27.604Z,0
2017-07-24T18:15:27.909Z,0
2017-07-24T18:16:27.877Z,0
2017-07-24T18:17:27.855Z,0
2017-07-24T18:18:28.046Z,0
2017-07-24T18:19:27.825Z,0
2017-07-24T18:20:27.807Z,0
2017-07-24T18:21:27.790Z,0
2017-07-24T18:22:27.784Z,0
2017-07-24T18:23:27.769Z,0
2017-07-24T18:24:27.752Z,0
2017-07-24T18:25:27.727Z,0
2017-07-24T18:26:27.711Z,0
2017-07-24T18:27:27.696Z,0
2017-07-24T18:28:27.681Z,0
2017-07-24T18:29:27.677Z,0
2017-07-24T18:30:27.656Z,0
2017-07-24T18:31:27.646Z,0
2017-07-24T18:32:27.631Z,0
2017-07-24T18:33:27.605Z,0
2017-07-24T18:34:27.585Z,0
2017-07-24T18:35:27.567Z,0
2017-07-24T18:36:27.564Z,0
2017-07-24T18:37:27.543Z,0
2017-07-24T18:38:27.529Z,0
2017-07-24T18:39:27.507Z,0
2017-07-24T18:40:27.188Z,0
2017-07-24T18:41:27.482Z,0
2017-07-24T18:42:27.458Z,0
2017-07-24T18:43:27.448Z,0
2017-07-24T18:44:27.430Z,0
2017-07-24T18:45:27.417Z,0
2017-07-24T18:46:27.396Z,0
2017-07-24T18:47:27.597Z,0
2017-07-24T18:48:41.005Z,0
2017-07-24T18:49:27.365Z,0
2017-07-24T18:50:27.340Z,0
2017-07-24T18:51:27.319Z,0
2017-07-24T18:52:27.302Z,0
2017-07-24T18:53:27.288Z,0
2017-07-24T18:54:26.958Z,0
2017-07-24T18:55:26.946Z,0
2017-07-24T18:56:27.231Z,0
2017-07-24T18:57:27.212Z,0
2017-07-24T18:58:27.206Z,0
2017-07-24T18:59:27.181Z,0
2017-07-24T19:00:27.167Z,0
2017-07-24T19:01:27.146Z,0
2017-07-24T19:02:27.141Z,0
2017-07-24T19:03:27.119Z,0
2017-07-24T19:04:27.107Z,0
2017-07-24T19:05:26.783Z,0
2017-07-24T19:06:27.070Z,0
2017-07-24T19:07:27.057Z,0
2017-07-24T19:08:27.033Z,0
2017-07-24T19:09:27.017Z,0
2017-07-24T19:10:27.005Z,0
2017-07-24T19:11:26.683Z,0
2017-07-24T19:12:26.974Z,0
2017-07-24T19:13:26.959Z,0
2017-07-24T19:14:26.931Z,0
2017-07-24T19:15:26.917Z,0
2017-07-24T19:16:26.600Z,0
2017-07-24T19:17:26.891Z,0
2017-07-24T19:18:26.872Z,0
2017-07-24T19:19:26.872Z,0
2017-07-24T19:20:26.844Z,0
2017-07-24T19:21:26.818Z,0
2017-07-24T19:22:26.800Z,0
2017-07-24T19:23:26.786Z,0
2017-07-24T19:24:26.476Z,0
2017-07-24T19:25:26.762Z,0
2017-07-24T19:26:26.747Z,0
2017-07-24T19:27:26.727Z,0
2017-07-24T19:28:26.710Z,0
2017-07-24T19:29:26.691Z,0
2017-07-24T19:30:26.678Z,0
2017-07-24T19:31:26.660Z,0
2017-07-24T19:32:26.339Z,0
2017-07-24T19:33:26.638Z,0
2017-07-24T19:34:26.614Z,0
2017-07-24T19:35:26.597Z,0
2017-07-24T19:36:26.278Z,0
2017-07-24T19:37:26.562Z,0
2017-07-24T19:38:26.553Z,0
2017-07-24T19:39:26.536Z,0
2017-07-24T19:40:26.510Z,0
2017-07-24T19:41:26.500Z,0
2017-07-24T19:42:26.488Z,0
2017-07-24T19:43:26.470Z,0
2017-07-24T19:44:26.446Z,0
2017-07-24T19:45:26.435Z,0
2017-07-24T19:46:26.421Z,0
2017-07-24T19:47:26.397Z,0
2017-07-24T19:48:26.386Z,0
2017-07-24T19:49:26.370Z,0
2017-07-24T19:50:26.355Z,0
2017-07-24T19:51:26.343Z,0
2017-07-24T19:52:26.315Z,0
2017-07-24T19:53:26.309Z,0
2017-07-24T19:54:26.284Z,0
2017-07-24T19:55:26.267Z,0
2017-07-24T19:56:26.252Z,0
2017-07-24T19:57:25.931Z,0
2017-07-24T19:58:26.222Z,0
2017-07-24T19:59:26.198Z,0
2017-07-24T20:00:26.191Z,0
2017-07-24T20:01:26.169Z,0
2017-07-24T20:02:26.149Z,0
2017-07-24T20:03:26.145Z,0
2017-07-24T20:04:26.129Z,0
2017-07-24T20:05:26.107Z,0
2017-07-24T20:06:26.085Z,0
2017-07-24T20:07:26.079Z,0
2017-07-24T20:08:26.062Z,0
2017-07-24T20:09:26.042Z,0
2017-07-24T20:10:26.021Z,0
2017-07-24T20:11:26.004Z,0
2017-07-24T20:12:25.989Z,0
2017-07-24T20:13:25.975Z,0
2017-07-24T20:14:25.965Z,0
2017-07-24T20:15:25.955Z,0
2017-07-24T20:16:25.926Z,0
2017-07-24T20:17:25.914Z,0
2017-07-24T20:18:25.890Z,0
2017-07-24T20:19:25.883Z,0
2017-07-24T20:20:25.866Z,0
2017-07-24T20:21:25.856Z,0
2017-07-24T20:22:25.832Z,0
2017-07-24T20:23:25.812Z,0
2017-07-24T20:24:25.795Z,0
2017-07-24T20:25:25.784Z,0
2017-07-24T20:26:25.768Z,0
2017-07-24T20:27:25.745Z,0
2017-07-24T20:28:25.732Z,0
2017-07-24T20:29:25.706Z,0
2017-07-24T20:30:25.694Z,0
2017-07-24T20:31:25.673Z,0
2017-07-24T20:32:25.660Z,0
2017-07-24T20:33:25.646Z,0
2017-07-24T20:34:25.625Z,0
2017-07-24T20:35:25.615Z,0
2017-07-24T20:36:25.595Z,0
2017-07-24T20:37:25.580Z,0
2017-07-24T20:38:25.562Z,0
2017-07-24T20:39:25.550Z,0
2017-07-24T20:40:25.533Z,0
2017-07-24T20:41:25.519Z,0
2017-07-24T20:42:25.507Z,0
2017-07-24T20:43:25.491Z,0
2017-07-24T20:44:25.464Z,0
2017-07-24T20:45:25.450Z,0
2017-07-24T20:46:25.441Z,0
2017-07-24T20:47:25.438Z,0